sensor_id;sensor_type;location;lat;lon;timestamp;pressure;altitude;pressure_sealevel;temperature;humidity
81224;BME280;70698;44.402;18.522;2023-09-08T00:00:56;97999.63;;;15.04;75.05
81224;BME280;70698;44.402;18.522;2023-09-08T00:03:22;97993.13;;;14.85;76.12
81224;BME280;70698;44.402;18.522;2023-09-08T00:05:48;98010.28;;;14.89;75.87
81224;BME280;70698;44.402;18.522;2023-09-08T00:08:13;97999.16;;;15.00;75.29
81224;BME280;70698;44.402;18.522;2023-09-08T00:10:39;97990.16;;;15.16;75.32
81224;BME280;70698;44.402;18.522;2023-09-08T00:13:05;97999.66;;;15.32;74.13
81224;BME280;70698;44.402;18.522;2023-09-08T00:15:33;98007.34;;;15.27;73.82
81224;BME280;70698;44.402;18.522;2023-09-08T00:17:59;98006.78;;;15.10;74.60
81224;BME280;70698;44.402;18.522;2023-09-08T00:20:24;98007.91;;;14.80;76.07
81224;BME280;70698;44.402;18.522;2023-09-08T00:22:50;98003.31;;;14.67;76.95
81224;BME280;70698;44.402;18.522;2023-09-08T00:25:15;97994.16;;;14.70;76.54
81224;BME280;70698;44.402;18.522;2023-09-08T00:27:41;97988.56;;;14.58;77.03
81224;BME280;70698;44.402;18.522;2023-09-08T00:30:07;97976.28;;;14.50;76.50
81224;BME280;70698;44.402;18.522;2023-09-08T00:32:33;97993.31;;;14.62;76.41
81224;BME280;70698;44.402;18.522;2023-09-08T00:34:59;98005.88;;;14.60;76.49
81224;BME280;70698;44.402;18.522;2023-09-08T00:37:25;98006.41;;;14.49;77.14
81224;BME280;70698;44.402;18.522;2023-09-08T00:39:50;98012.28;;;14.51;76.71
81224;BME280;70698;44.402;18.522;2023-09-08T00:42:16;97997.03;;;14.68;76.04
81224;BME280;70698;44.402;18.522;2023-09-08T00:44:41;97998.94;;;14.74;75.66
81224;BME280;70698;44.402;18.522;2023-09-08T00:47:07;97989.19;;;14.60;76.19
81224;BME280;70698;44.402;18.522;2023-09-08T00:49:33;97991.22;;;14.58;76.28
81224;BME280;70698;44.402;18.522;2023-09-08T00:51:59;97988.88;;;14.48;77.17
81224;BME280;70698;44.402;18.522;2023-09-08T00:54:27;97992.34;;;14.34;77.31
81224;BME280;70698;44.402;18.522;2023-09-08T00:56:56;97991.88;;;14.31;77.56
81224;BME280;70698;44.402;18.522;2023-09-08T00:59:25;97990.44;;;14.43;76.88
81224;BME280;70698;44.402;18.522;2023-09-08T01:01:51;97983.88;;;14.39;76.58
81224;BME280;70698;44.402;18.522;2023-09-08T01:04:17;97988.22;;;14.32;77.54
81224;BME280;70698;44.402;18.522;2023-09-08T01:06:44;97991.81;;;14.24;78.05
81224;BME280;70698;44.402;18.522;2023-09-08T01:09:11;97972.84;;;14.20;77.43
81224;BME280;70698;44.402;18.522;2023-09-08T01:11:37;97983.59;;;14.34;77.39
81224;BME280;70698;44.402;18.522;2023-09-08T01:14:03;97985.06;;;14.36;76.93
81224;BME280;70698;44.402;18.522;2023-09-08T01:16:28;97991.59;;;14.26;77.65
81224;BME280;70698;44.402;18.522;2023-09-08T01:18:54;97975.59;;;14.12;78.25
81224;BME280;70698;44.402;18.522;2023-09-08T01:22:11;97984.16;;;14.29;77.60
81224;BME280;70698;44.402;18.522;2023-09-08T01:27:06;97984.72;;;14.39;77.05
81224;BME280;70698;44.402;18.522;2023-09-08T01:29:33;97984.47;;;14.55;76.42
81224;BME280;70698;44.402;18.522;2023-09-08T01:32:01;97973.44;;;14.52;76.07
81224;BME280;70698;44.402;18.522;2023-09-08T01:34:27;97987.06;;;14.70;75.49
81224;BME280;70698;44.402;18.522;2023-09-08T01:36:52;97968.47;;;14.42;76.31
81224;BME280;70698;44.402;18.522;2023-09-08T01:39:18;97986.31;;;14.26;77.42
81224;BME280;70698;44.402;18.522;2023-09-08T01:41:44;97986.91;;;14.06;78.28
81224;BME280;70698;44.402;18.522;2023-09-08T01:44:10;97980.69;;;14.29;76.92
81224;BME280;70698;44.402;18.522;2023-09-08T01:46:37;97991.00;;;14.38;76.45
81224;BME280;70698;44.402;18.522;2023-09-08T01:49:03;97987.72;;;14.36;76.46
81224;BME280;70698;44.402;18.522;2023-09-08T01:51:29;97986.84;;;14.36;76.04
81224;BME280;70698;44.402;18.522;2023-09-08T01:53:55;97992.63;;;14.39;76.28
81224;BME280;70698;44.402;18.522;2023-09-08T01:56:20;97992.53;;;14.18;77.04
81224;BME280;70698;44.402;18.522;2023-09-08T01:58:48;97992.44;;;14.26;77.22
81224;BME280;70698;44.402;18.522;2023-09-08T02:01:14;97993.25;;;14.27;77.17
81224;BME280;70698;44.402;18.522;2023-09-08T02:03:39;97989.19;;;14.39;76.57
81224;BME280;70698;44.402;18.522;2023-09-08T02:06:05;97990.25;;;14.15;77.79
81224;BME280;70698;44.402;18.522;2023-09-08T02:08:31;97991.09;;;13.86;78.30
81224;BME280;70698;44.402;18.522;2023-09-08T02:10:58;97997.19;;;13.72;79.16
81224;BME280;70698;44.402;18.522;2023-09-08T02:13:23;98000.22;;;13.69;79.28
81224;BME280;70698;44.402;18.522;2023-09-08T02:15:49;98000.28;;;13.61;79.64
81224;BME280;70698;44.402;18.522;2023-09-08T02:18:14;97986.88;;;13.48;79.89
81224;BME280;70698;44.402;18.522;2023-09-08T02:20:40;98008.28;;;13.53;80.07
81224;BME280;70698;44.402;18.522;2023-09-08T02:23:06;98008.00;;;13.48;80.15
81224;BME280;70698;44.402;18.522;2023-09-08T02:25:33;98003.28;;;13.58;80.17
81224;BME280;70698;44.402;18.522;2023-09-08T02:27:59;98006.09;;;13.56;80.06
81224;BME280;70698;44.402;18.522;2023-09-08T02:30:24;97996.88;;;13.38;80.55
81224;BME280;70698;44.402;18.522;2023-09-08T02:32:51;98003.00;;;13.53;80.20
81224;BME280;70698;44.402;18.522;2023-09-08T02:35:17;98004.69;;;13.68;79.47
81224;BME280;70698;44.402;18.522;2023-09-08T02:37:42;98007.13;;;13.70;79.57
81224;BME280;70698;44.402;18.522;2023-09-08T02:40:09;97997.63;;;13.61;79.96
81224;BME280;70698;44.402;18.522;2023-09-08T02:42:36;98001.66;;;13.57;80.32
81224;BME280;70698;44.402;18.522;2023-09-08T02:45:01;98004.28;;;13.57;79.60
81224;BME280;70698;44.402;18.522;2023-09-08T02:47:28;97982.28;;;13.79;77.81
81224;BME280;70698;44.402;18.522;2023-09-08T02:49:54;97979.53;;;13.87;77.90
81224;BME280;70698;44.402;18.522;2023-09-08T02:52:19;97981.59;;;14.06;76.86
81224;BME280;70698;44.402;18.522;2023-09-08T02:54:46;97995.38;;;14.16;76.24
81224;BME280;70698;44.402;18.522;2023-09-08T02:57:12;97987.63;;;14.00;76.45
81224;BME280;70698;44.402;18.522;2023-09-08T02:59:37;97985.91;;;13.78;77.23
81224;BME280;70698;44.402;18.522;2023-09-08T03:02:03;97999.72;;;13.65;78.32
81224;BME280;70698;44.402;18.522;2023-09-08T03:04:29;97989.25;;;13.43;79.05
81224;BME280;70698;44.402;18.522;2023-09-08T03:06:55;97989.34;;;13.49;79.03
81224;BME280;70698;44.402;18.522;2023-09-08T03:09:21;97992.59;;;13.36;80.03
81224;BME280;70698;44.402;18.522;2023-09-08T03:11:46;97993.66;;;13.27;80.24
81224;BME280;70698;44.402;18.522;2023-09-08T03:14:12;98003.41;;;13.27;80.65
81224;BME280;70698;44.402;18.522;2023-09-08T03:16:37;97993.38;;;13.22;80.59
81224;BME280;70698;44.402;18.522;2023-09-08T03:19:03;97982.41;;;13.33;80.41
81224;BME280;70698;44.402;18.522;2023-09-08T03:21:29;97980.84;;;13.24;80.15
81224;BME280;70698;44.402;18.522;2023-09-08T03:23:54;97995.13;;;13.30;80.07
81224;BME280;70698;44.402;18.522;2023-09-08T03:26:21;97990.97;;;13.50;80.18
81224;BME280;70698;44.402;18.522;2023-09-08T03:28:46;97994.72;;;13.56;79.51
81224;BME280;70698;44.402;18.522;2023-09-08T03:31:12;97997.00;;;13.59;78.86
81224;BME280;70698;44.402;18.522;2023-09-08T03:33:37;97989.53;;;13.48;79.36
81224;BME280;70698;44.402;18.522;2023-09-08T03:36:06;97988.50;;;13.34;80.41
81224;BME280;70698;44.402;18.522;2023-09-08T03:38:32;97993.88;;;13.41;79.77
81224;BME280;70698;44.402;18.522;2023-09-08T03:40:58;97979.97;;;13.47;78.75
81224;BME280;70698;44.402;18.522;2023-09-08T03:43:24;97991.16;;;13.49;79.35
81224;BME280;70698;44.402;18.522;2023-09-08T03:45:50;97998.72;;;13.52;79.17
81224;BME280;70698;44.402;18.522;2023-09-08T03:48:15;97971.59;;;13.43;79.14
81224;BME280;70698;44.402;18.522;2023-09-08T03:50:41;97984.63;;;13.45;79.42
81224;BME280;70698;44.402;18.522;2023-09-08T03:53:12;97990.81;;;13.52;79.36
81224;BME280;70698;44.402;18.522;2023-09-08T03:55:38;97984.81;;;13.72;77.84
81224;BME280;70698;44.402;18.522;2023-09-08T03:58:03;97990.19;;;13.50;78.82
81224;BME280;70698;44.402;18.522;2023-09-08T04:00:29;97996.16;;;13.44;78.88
81224;BME280;70698;44.402;18.522;2023-09-08T04:02:55;97993.72;;;13.57;78.43
81224;BME280;70698;44.402;18.522;2023-09-08T04:05:20;97998.00;;;13.20;79.46
81224;BME280;70698;44.402;18.522;2023-09-08T04:07:46;98000.72;;;13.12;80.18
81224;BME280;70698;44.402;18.522;2023-09-08T04:10:12;97993.19;;;13.01;80.69
81224;BME280;70698;44.402;18.522;2023-09-08T04:12:39;98004.66;;;12.93;80.89
81224;BME280;70698;44.402;18.522;2023-09-08T04:15:06;97990.34;;;12.88;81.59
81224;BME280;70698;44.402;18.522;2023-09-08T04:17:32;97997.47;;;13.02;81.63
81224;BME280;70698;44.402;18.522;2023-09-08T04:19:58;98013.78;;;12.83;82.33
81224;BME280;70698;44.402;18.522;2023-09-08T04:22:24;98004.28;;;12.97;82.12
81224;BME280;70698;44.402;18.522;2023-09-08T04:24:50;98011.22;;;13.20;81.42
81224;BME280;70698;44.402;18.522;2023-09-08T04:27:16;98008.47;;;13.14;81.39
81224;BME280;70698;44.402;18.522;2023-09-08T04:29:42;98016.59;;;13.04;81.28
81224;BME280;70698;44.402;18.522;2023-09-08T04:32:07;98011.50;;;13.03;81.89
81224;BME280;70698;44.402;18.522;2023-09-08T04:34:38;98011.19;;;12.98;82.16
81224;BME280;70698;44.402;18.522;2023-09-08T04:37:04;97990.91;;;12.98;81.83
81224;BME280;70698;44.402;18.522;2023-09-08T04:39:30;98008.16;;;13.09;81.81
81224;BME280;70698;44.402;18.522;2023-09-08T04:41:55;98008.69;;;13.04;82.02
81224;BME280;70698;44.402;18.522;2023-09-08T04:44:21;98009.06;;;13.24;80.85
81224;BME280;70698;44.402;18.522;2023-09-08T04:46:47;98005.09;;;13.43;80.32
81224;BME280;70698;44.402;18.522;2023-09-08T04:49:13;97993.88;;;13.55;79.41
81224;BME280;70698;44.402;18.522;2023-09-08T04:51:39;98005.13;;;13.87;78.25
81224;BME280;70698;44.402;18.522;2023-09-08T04:54:05;97997.56;;;13.98;77.61
81224;BME280;70698;44.402;18.522;2023-09-08T04:56:31;98009.56;;;14.15;77.00
81224;BME280;70698;44.402;18.522;2023-09-08T04:58:56;98006.94;;;14.15;77.24
81224;BME280;70698;44.402;18.522;2023-09-08T05:01:23;98008.59;;;14.16;77.44
81224;BME280;70698;44.402;18.522;2023-09-08T05:03:49;98000.94;;;14.07;76.88
81224;BME280;70698;44.402;18.522;2023-09-08T05:06:15;98011.97;;;13.96;77.50
81224;BME280;70698;44.402;18.522;2023-09-08T05:08:41;97994.38;;;13.88;77.20
81224;BME280;70698;44.402;18.522;2023-09-08T05:11:10;98017.78;;;13.91;78.12
81224;BME280;70698;44.402;18.522;2023-09-08T05:13:35;98007.66;;;13.95;78.33
81224;BME280;70698;44.402;18.522;2023-09-08T05:16:03;98006.59;;;13.89;77.48
81224;BME280;70698;44.402;18.522;2023-09-08T05:18:38;97999.84;;;13.72;78.52
81224;BME280;70698;44.402;18.522;2023-09-08T05:21:05;98022.25;;;13.76;79.33
81224;BME280;70698;44.402;18.522;2023-09-08T05:23:31;98016.78;;;13.77;79.53
81224;BME280;70698;44.402;18.522;2023-09-08T05:25:56;98012.13;;;13.65;79.65
81224;BME280;70698;44.402;18.522;2023-09-08T05:28:22;98020.25;;;13.78;79.70
81224;BME280;70698;44.402;18.522;2023-09-08T05:30:51;98023.34;;;13.96;79.28
81224;BME280;70698;44.402;18.522;2023-09-08T05:33:17;98030.38;;;14.04;79.47
81224;BME280;70698;44.402;18.522;2023-09-08T05:35:44;98017.44;;;14.09;79.12
81224;BME280;70698;44.402;18.522;2023-09-08T05:38:10;98019.97;;;14.17;78.79
81224;BME280;70698;44.402;18.522;2023-09-08T05:40:35;98017.97;;;14.19;79.24
81224;BME280;70698;44.402;18.522;2023-09-08T05:43:02;98010.38;;;14.31;79.02
81224;BME280;70698;44.402;18.522;2023-09-08T05:45:28;98027.72;;;14.48;78.24
81224;BME280;70698;44.402;18.522;2023-09-08T05:47:55;98007.91;;;14.58;77.44
81224;BME280;70698;44.402;18.522;2023-09-08T05:50:21;98023.34;;;14.76;77.78
81224;BME280;70698;44.402;18.522;2023-09-08T05:52:46;98023.69;;;14.88;77.05
81224;BME280;70698;44.402;18.522;2023-09-08T05:55:12;98020.34;;;15.00;76.59
81224;BME280;70698;44.402;18.522;2023-09-08T05:57:38;98020.59;;;15.05;76.31
81224;BME280;70698;44.402;18.522;2023-09-08T06:00:05;98022.34;;;15.20;75.75
81224;BME280;70698;44.402;18.522;2023-09-08T06:02:38;98010.75;;;15.21;75.62
81224;BME280;70698;44.402;18.522;2023-09-08T06:05:05;98009.03;;;15.34;75.55
81224;BME280;70698;44.402;18.522;2023-09-08T06:07:33;98027.72;;;15.47;75.02
81224;BME280;70698;44.402;18.522;2023-09-08T06:09:58;98021.91;;;15.59;74.74
81224;BME280;70698;44.402;18.522;2023-09-08T06:12:24;98020.94;;;15.66;75.06
81224;BME280;70698;44.402;18.522;2023-09-08T06:14:50;98028.97;;;15.79;74.47
81224;BME280;70698;44.402;18.522;2023-09-08T06:17:16;98024.78;;;15.91;75.20
81224;BME280;70698;44.402;18.522;2023-09-08T06:19:42;98021.94;;;15.93;74.59
81224;BME280;70698;44.402;18.522;2023-09-08T06:22:07;98023.84;;;16.06;74.29
81224;BME280;70698;44.402;18.522;2023-09-08T06:24:33;98008.34;;;16.09;74.67
81224;BME280;70698;44.402;18.522;2023-09-08T06:26:59;98019.47;;;16.26;74.07
81224;BME280;70698;44.402;18.522;2023-09-08T06:29:24;98023.22;;;16.45;73.62
81224;BME280;70698;44.402;18.522;2023-09-08T06:31:50;98025.13;;;16.57;73.03
81224;BME280;70698;44.402;18.522;2023-09-08T06:34:16;98017.41;;;16.62;72.97
81224;BME280;70698;44.402;18.522;2023-09-08T06:36:42;98026.44;;;16.81;72.46
81224;BME280;70698;44.402;18.522;2023-09-08T06:39:08;98032.38;;;16.90;72.05
81224;BME280;70698;44.402;18.522;2023-09-08T06:41:34;98034.44;;;17.01;71.68
81224;BME280;70698;44.402;18.522;2023-09-08T06:44:02;98025.06;;;17.11;71.19
81224;BME280;70698;44.402;18.522;2023-09-08T06:46:28;98028.78;;;17.30;70.46
81224;BME280;70698;44.402;18.522;2023-09-08T06:48:54;98026.75;;;17.45;69.63
81224;BME280;70698;44.402;18.522;2023-09-08T06:51:19;98023.28;;;17.51;69.16
81224;BME280;70698;44.402;18.522;2023-09-08T06:53:54;98037.78;;;17.55;67.90
81224;BME280;70698;44.402;18.522;2023-09-08T06:56:20;98028.22;;;17.68;67.71
81224;BME280;70698;44.402;18.522;2023-09-08T06:58:46;98037.56;;;17.90;67.74
81224;BME280;70698;44.402;18.522;2023-09-08T07:01:12;98033.66;;;17.99;67.84
81224;BME280;70698;44.402;18.522;2023-09-08T07:03:38;98040.19;;;18.16;67.88
81224;BME280;70698;44.402;18.522;2023-09-08T07:06:05;98030.97;;;18.19;67.77
81224;BME280;70698;44.402;18.522;2023-09-08T07:08:30;98031.34;;;18.29;68.26
81224;BME280;70698;44.402;18.522;2023-09-08T07:10:56;98037.66;;;18.47;67.88
81224;BME280;70698;44.402;18.522;2023-09-08T07:13:22;98032.31;;;18.47;67.47
81224;BME280;70698;44.402;18.522;2023-09-08T07:15:48;98029.81;;;18.59;66.05
81224;BME280;70698;44.402;18.522;2023-09-08T07:18:14;98032.47;;;18.66;66.21
81224;BME280;70698;44.402;18.522;2023-09-08T07:20:39;98034.66;;;18.82;65.87
81224;BME280;70698;44.402;18.522;2023-09-08T07:23:06;98033.72;;;19.01;65.79
81224;BME280;70698;44.402;18.522;2023-09-08T07:25:32;98027.72;;;19.12;64.81
81224;BME280;70698;44.402;18.522;2023-09-08T07:27:58;98019.25;;;19.22;64.92
81224;BME280;70698;44.402;18.522;2023-09-08T07:30:25;98029.97;;;19.40;65.00
81224;BME280;70698;44.402;18.522;2023-09-08T07:32:51;98023.19;;;19.44;63.87
81224;BME280;70698;44.402;18.522;2023-09-08T07:35:17;98026.03;;;19.49;63.79
81224;BME280;70698;44.402;18.522;2023-09-08T07:37:45;98022.19;;;19.63;63.41
81224;BME280;70698;44.402;18.522;2023-09-08T07:40:12;98022.03;;;19.83;61.79
81224;BME280;70698;44.402;18.522;2023-09-08T07:42:37;98001.91;;;19.87;59.77
81224;BME280;70698;44.402;18.522;2023-09-08T07:45:04;98012.78;;;20.04;60.14
81224;BME280;70698;44.402;18.522;2023-09-08T07:47:29;98012.56;;;20.24;60.23
81224;BME280;70698;44.402;18.522;2023-09-08T07:50:16;98023.41;;;20.29;60.39
81224;BME280;70698;44.402;18.522;2023-09-08T07:52:42;98015.56;;;20.34;59.51
81224;BME280;70698;44.402;18.522;2023-09-08T07:55:07;98023.94;;;20.55;60.16
81224;BME280;70698;44.402;18.522;2023-09-08T07:57:33;98028.53;;;20.67;58.30
81224;BME280;70698;44.402;18.522;2023-09-08T07:59:58;98016.38;;;20.82;57.60
81224;BME280;70698;44.402;18.522;2023-09-08T08:02:24;98020.84;;;20.88;57.01
81224;BME280;70698;44.402;18.522;2023-09-08T08:04:50;98009.94;;;21.20;56.37
81224;BME280;70698;44.402;18.522;2023-09-08T08:07:15;98003.94;;;21.36;55.94
81224;BME280;70698;44.402;18.522;2023-09-08T08:09:41;98013.03;;;21.46;55.27
81224;BME280;70698;44.402;18.522;2023-09-08T08:12:06;98011.50;;;21.62;53.97
81224;BME280;70698;44.402;18.522;2023-09-08T08:14:32;98001.28;;;21.59;53.74
81224;BME280;70698;44.402;18.522;2023-09-08T08:16:57;98011.41;;;21.92;54.54
81224;BME280;70698;44.402;18.522;2023-09-08T08:19:23;98004.44;;;21.91;52.72
81224;BME280;70698;44.402;18.522;2023-09-08T08:21:48;97998.63;;;22.06;52.62
81224;BME280;70698;44.402;18.522;2023-09-08T08:24:14;98005.69;;;22.23;51.83
81224;BME280;70698;44.402;18.522;2023-09-08T08:26:40;98013.63;;;22.30;52.43
81224;BME280;70698;44.402;18.522;2023-09-08T08:29:05;98008.91;;;22.37;53.49
81224;BME280;70698;44.402;18.522;2023-09-08T08:31:31;98013.09;;;22.56;52.74
81224;BME280;70698;44.402;18.522;2023-09-08T08:33:58;98011.66;;;22.65;52.07
81224;BME280;70698;44.402;18.522;2023-09-08T08:36:24;98014.13;;;22.95;52.44
81224;BME280;70698;44.402;18.522;2023-09-08T08:38:49;98014.47;;;22.99;50.21
81224;BME280;70698;44.402;18.522;2023-09-08T08:41:15;98014.47;;;22.99;49.97
81224;BME280;70698;44.402;18.522;2023-09-08T08:43:42;97997.59;;;23.15;50.55
81224;BME280;70698;44.402;18.522;2023-09-08T08:46:09;98002.59;;;23.11;50.16
81224;BME280;70698;44.402;18.522;2023-09-08T08:48:37;98009.59;;;23.12;50.10
81224;BME280;70698;44.402;18.522;2023-09-08T08:51:03;98001.59;;;23.29;49.55
81224;BME280;70698;44.402;18.522;2023-09-08T08:53:31;97988.53;;;23.49;49.97
81224;BME280;70698;44.402;18.522;2023-09-08T08:55:58;97998.94;;;23.63;49.00
81224;BME280;70698;44.402;18.522;2023-09-08T08:58:25;97992.97;;;23.77;46.73
81224;BME280;70698;44.402;18.522;2023-09-08T09:00:53;97983.22;;;23.88;47.85
81224;BME280;70698;44.402;18.522;2023-09-08T09:03:26;97989.03;;;24.18;46.84
81224;BME280;70698;44.402;18.522;2023-09-08T09:05:53;97995.03;;;24.25;44.64
81224;BME280;70698;44.402;18.522;2023-09-08T09:08:19;97985.84;;;24.43;45.45
81224;BME280;70698;44.402;18.522;2023-09-08T09:10:45;97979.13;;;24.40;42.36
81224;BME280;70698;44.402;18.522;2023-09-08T09:13:10;97973.53;;;24.47;42.83
81224;BME280;70698;44.402;18.522;2023-09-08T09:15:36;97983.59;;;24.57;42.95
81224;BME280;70698;44.402;18.522;2023-09-08T09:18:06;97994.56;;;24.77;42.73
81224;BME280;70698;44.402;18.522;2023-09-08T09:20:32;97980.69;;;24.85;42.59
81224;BME280;70698;44.402;18.522;2023-09-08T09:22:58;97974.94;;;24.98;42.68
81224;BME280;70698;44.402;18.522;2023-09-08T09:25:27;97989.19;;;25.25;43.47
81224;BME280;70698;44.402;18.522;2023-09-08T09:28:02;97989.59;;;25.44;42.70
81224;BME280;70698;44.402;18.522;2023-09-08T09:30:46;97984.09;;;25.29;42.82
81224;BME280;70698;44.402;18.522;2023-09-08T09:33:13;97985.63;;;25.52;42.81
81224;BME280;70698;44.402;18.522;2023-09-08T09:36:00;97976.59;;;25.63;41.86
81224;BME280;70698;44.402;18.522;2023-09-08T09:38:27;97974.03;;;25.83;43.13
81224;BME280;70698;44.402;18.522;2023-09-08T09:40:52;97968.03;;;25.76;42.50
81224;BME280;70698;44.402;18.522;2023-09-08T09:43:21;97978.81;;;25.76;42.88
81224;BME280;70698;44.402;18.522;2023-09-08T09:45:48;97966.78;;;25.89;41.95
81224;BME280;70698;44.402;18.522;2023-09-08T09:48:14;97972.44;;;25.87;43.10
81224;BME280;70698;44.402;18.522;2023-09-08T09:50:41;97967.78;;;26.20;42.11
81224;BME280;70698;44.402;18.522;2023-09-08T09:55:36;97962.53;;;26.45;41.57
81224;BME280;70698;44.402;18.522;2023-09-08T09:58:02;97954.44;;;26.45;42.02
81224;BME280;70698;44.402;18.522;2023-09-08T10:00:30;97952.06;;;26.64;42.02
81224;BME280;70698;44.402;18.522;2023-09-08T10:02:56;97943.38;;;26.46;40.74
81224;BME280;70698;44.402;18.522;2023-09-08T10:05:24;97957.81;;;26.97;41.25
81224;BME280;70698;44.402;18.522;2023-09-08T10:07:50;97945.41;;;26.91;41.71
81224;BME280;70698;44.402;18.522;2023-09-08T10:10:17;97950.25;;;26.89;40.56
81224;BME280;70698;44.402;18.522;2023-09-08T10:12:44;97951.84;;;26.90;40.83
81224;BME280;70698;44.402;18.522;2023-09-08T10:15:11;97951.03;;;26.85;40.44
81224;BME280;70698;44.402;18.522;2023-09-08T10:17:40;97929.22;;;27.12;40.72
81224;BME280;70698;44.402;18.522;2023-09-08T10:20:08;97933.00;;;27.16;40.19
81224;BME280;70698;44.402;18.522;2023-09-08T10:22:39;97940.56;;;27.69;39.56
81224;BME280;70698;44.402;18.522;2023-09-08T10:25:07;97938.41;;;27.61;39.35
81224;BME280;70698;44.402;18.522;2023-09-08T10:27:34;97936.75;;;27.75;40.02
81224;BME280;70698;44.402;18.522;2023-09-08T10:30:02;97928.03;;;28.14;40.54
81224;BME280;70698;44.402;18.522;2023-09-08T10:32:33;97922.19;;;28.51;39.13
81224;BME280;70698;44.402;18.522;2023-09-08T10:35:02;97912.03;;;28.28;37.12
81224;BME280;70698;44.402;18.522;2023-09-08T10:37:28;97915.47;;;28.43;38.02
81224;BME280;70698;44.402;18.522;2023-09-08T10:40:24;97910.47;;;28.65;35.90
81224;BME280;70698;44.402;18.522;2023-09-08T10:43:11;97911.44;;;28.36;36.71
81224;BME280;70698;44.402;18.522;2023-09-08T10:45:36;97906.09;;;28.69;36.19
81224;BME280;70698;44.402;18.522;2023-09-08T10:48:02;97900.06;;;29.22;36.50
81224;BME280;70698;44.402;18.522;2023-09-08T10:50:35;97884.09;;;29.20;35.18
81224;BME280;70698;44.402;18.522;2023-09-08T10:55:40;97882.59;;;29.09;32.39
81224;BME280;70698;44.402;18.522;2023-09-08T10:58:09;97879.00;;;29.19;32.99
81224;BME280;70698;44.402;18.522;2023-09-08T11:00:45;97883.66;;;29.13;33.66
81224;BME280;70698;44.402;18.522;2023-09-08T11:03:11;97881.84;;;29.37;33.96
81224;BME280;70698;44.402;18.522;2023-09-08T11:05:37;97871.41;;;29.49;32.25
81224;BME280;70698;44.402;18.522;2023-09-08T11:08:03;97873.56;;;29.76;33.44
81224;BME280;70698;44.402;18.522;2023-09-08T11:10:29;97870.97;;;29.66;32.39
81224;BME280;70698;44.402;18.522;2023-09-08T11:12:56;97873.28;;;29.78;32.03
81224;BME280;70698;44.402;18.522;2023-09-08T11:15:21;97872.63;;;29.86;30.51
81224;BME280;70698;44.402;18.522;2023-09-08T11:17:47;97865.91;;;29.83;31.60
81224;BME280;70698;44.402;18.522;2023-09-08T11:20:16;97861.78;;;29.91;30.20
81224;BME280;70698;44.402;18.522;2023-09-08T11:22:45;97860.13;;;30.14;30.75
81224;BME280;70698;44.402;18.522;2023-09-08T11:25:12;97861.81;;;30.10;29.92
81224;BME280;70698;44.402;18.522;2023-09-08T11:27:38;97866.59;;;29.94;29.85
81224;BME280;70698;44.402;18.522;2023-09-08T11:30:06;97851.69;;;30.15;30.67
81224;BME280;70698;44.402;18.522;2023-09-08T11:32:33;97854.91;;;29.99;30.22
81224;BME280;70698;44.402;18.522;2023-09-08T11:35:07;97857.53;;;29.80;30.23
81224;BME280;70698;44.402;18.522;2023-09-08T11:37:37;97850.63;;;30.35;29.68
81224;BME280;70698;44.402;18.522;2023-09-08T11:40:04;97849.94;;;30.24;30.93
81224;BME280;70698;44.402;18.522;2023-09-08T11:42:43;97839.28;;;30.33;30.44
81224;BME280;70698;44.402;18.522;2023-09-08T11:45:13;97836.38;;;30.24;28.90
81224;BME280;70698;44.402;18.522;2023-09-08T11:47:42;97828.59;;;29.75;28.74
81224;BME280;70698;44.402;18.522;2023-09-08T11:50:09;97837.03;;;29.98;29.01
81224;BME280;70698;44.402;18.522;2023-09-08T11:52:38;97828.25;;;30.06;28.79
81224;BME280;70698;44.402;18.522;2023-09-08T11:55:04;97841.25;;;30.27;28.37
81224;BME280;70698;44.402;18.522;2023-09-08T11:57:31;97831.91;;;30.15;29.67
81224;BME280;70698;44.402;18.522;2023-09-08T11:59:57;97835.38;;;30.39;29.25
81224;BME280;70698;44.402;18.522;2023-09-08T12:02:23;97825.41;;;30.16;29.37
81224;BME280;70698;44.402;18.522;2023-09-08T12:04:53;97827.31;;;30.15;29.46
81224;BME280;70698;44.402;18.522;2023-09-08T12:07:19;97827.03;;;30.35;29.44
81224;BME280;70698;44.402;18.522;2023-09-08T12:09:45;97824.09;;;30.13;29.04
81224;BME280;70698;44.402;18.522;2023-09-08T12:12:11;97822.19;;;30.32;29.59
81224;BME280;70698;44.402;18.522;2023-09-08T12:14:41;97822.84;;;30.24;29.26
81224;BME280;70698;44.402;18.522;2023-09-08T12:17:07;97816.03;;;30.46;29.56
81224;BME280;70698;44.402;18.522;2023-09-08T12:19:33;97816.09;;;30.59;29.27
81224;BME280;70698;44.402;18.522;2023-09-08T12:22:03;97821.88;;;30.34;29.14
81224;BME280;70698;44.402;18.522;2023-09-08T12:27:21;97791.16;;;30.76;29.33
81224;BME280;70698;44.402;18.522;2023-09-08T12:32:20;97811.06;;;31.04;28.38
81224;BME280;70698;44.402;18.522;2023-09-08T12:34:45;97802.75;;;30.44;28.20
81224;BME280;70698;44.402;18.522;2023-09-08T12:37:11;97804.81;;;30.71;28.30
81224;BME280;70698;44.402;18.522;2023-09-08T12:39:39;97807.47;;;30.90;28.51
81224;BME280;70698;44.402;18.522;2023-09-08T12:42:05;97805.09;;;30.69;28.34
81224;BME280;70698;44.402;18.522;2023-09-08T12:44:30;97795.81;;;31.08;27.21
81224;BME280;70698;44.402;18.522;2023-09-08T12:46:56;97801.16;;;31.27;27.50
81224;BME280;70698;44.402;18.522;2023-09-08T12:49:21;97785.81;;;30.71;26.96
81224;BME280;70698;44.402;18.522;2023-09-08T12:51:47;97795.66;;;30.67;27.98
81224;BME280;70698;44.402;18.522;2023-09-08T12:54:13;97790.00;;;31.42;27.84
81224;BME280;70698;44.402;18.522;2023-09-08T12:56:38;97785.69;;;31.82;27.98
81224;BME280;70698;44.402;18.522;2023-09-08T12:59:04;97793.06;;;31.68;26.80
81224;BME280;70698;44.402;18.522;2023-09-08T13:01:29;97796.22;;;31.29;27.43